createdAt,value
2023-03-23T15:58:54.582Z,30.81
2023-03-23T16:03:01.402Z,31.04
2023-03-23T16:07:02.872Z,31.60
2023-03-23T16:11:04.481Z,31.36
2023-03-23T16:15:06.425Z,31.04
2023-03-23T16:19:11.329Z,31.23
2023-03-23T16:23:12.762Z,30.60
2023-03-23T16:27:14.692Z,30.72
2023-03-23T16:31:16.070Z,30.69
2023-03-23T16:35:18.333Z,30.38
2023-03-23T16:39:19.724Z,31.44
2023-03-23T16:43:21.784Z,30.76
2023-03-23T16:47:25.248Z,31.13
2023-03-23T16:51:26.658Z,30.51
2023-03-23T16:55:29.830Z,30.65
2023-03-23T16:59:31.174Z,30.71
2023-03-23T17:03:32.877Z,31.07
2023-03-23T17:07:34.385Z,30.90
2023-03-23T17:11:35.793Z,30.13
2023-03-23T17:15:39.071Z,29.85
2023-03-23T17:19:40.957Z,30.10
2023-03-23T17:23:42.370Z,30.82
2023-03-23T17:27:43.834Z,31.44
2023-03-23T17:31:45.398Z,31.31
2023-03-23T17:35:47.690Z,31.43
2023-03-23T17:39:49.451Z,31.54
2023-03-23T17:43:53.162Z,30.94
2023-03-23T17:47:54.525Z,31.01
2023-03-23T17:51:57.461Z,31.15
2023-03-23T17:55:59.268Z,32.07
2023-03-23T18:00:00.643Z,31.84
2023-03-23T18:04:07.776Z,32.63
2023-03-23T18:08:09.841Z,32.95
2023-03-23T18:12:11.222Z,32.29
2023-03-23T18:16:12.765Z,31.64
2023-03-23T18:20:14.117Z,32.26
2023-03-23T18:24:15.642Z,32.27
2023-03-23T18:28:17.409Z,32.30
2023-03-23T18:32:19.719Z,32.25
2023-03-23T18:36:23.685Z,33.12
2023-03-23T18:40:25.072Z,32.54
2023-03-23T18:44:26.518Z,32.20
2023-03-23T18:48:27.875Z,33.24
2023-03-23T18:52:30.907Z,33.11
2023-03-23T18:56:32.415Z,33.02
2023-03-23T19:00:33.883Z,33.60
2023-03-23T19:04:35.254Z,34.13
2023-03-23T19:08:36.583Z,34.13
2023-03-23T19:12:38.444Z,34.20
2023-03-23T19:16:39.866Z,34.84
2023-03-23T19:21:09.583Z,35.44
2023-03-23T19:25:05.177Z,35.15
2023-03-23T19:33:13.297Z,35.00
2023-03-23T19:37:16.260Z,35.39
2023-03-23T19:41:19.175Z,35.58
2023-03-23T19:45:20.720Z,34.75
2023-03-23T19:49:22.102Z,35.58
2023-03-23T19:53:23.853Z,35.64
2023-03-23T19:57:25.288Z,35.19
2023-03-23T20:01:28.071Z,35.30
2023-03-23T20:05:29.590Z,36.56
2023-03-23T20:09:31.172Z,35.59
2023-03-23T20:13:36.050Z,35.49
2023-03-23T20:17:37.695Z,35.35
2023-03-23T20:21:39.813Z,34.67
2023-03-23T20:25:44.192Z,35.84
2023-03-23T20:29:45.672Z,34.96
2023-03-23T20:34:00.182Z,36.05
2023-03-23T20:38:02.604Z,35.48
2023-03-23T20:42:05.710Z,36.14
2023-03-23T20:46:08.243Z,34.85
2023-03-23T20:50:10.662Z,35.92
2023-03-23T20:54:15.510Z,35.04
2023-03-23T20:58:17.686Z,35.91
2023-03-23T21:02:20.446Z,35.59
2023-03-23T21:06:21.738Z,35.77
2023-03-23T21:10:25.614Z,35.96
2023-03-23T21:14:26.987Z,35.68
2023-03-23T21:18:28.780Z,35.72
2023-03-23T21:22:32.163Z,36.66
2023-03-23T21:26:33.808Z,36.96
2023-03-23T21:30:35.155Z,36.29
2023-03-23T21:34:39.162Z,35.86
2023-03-23T21:38:40.953Z,36.18
2023-03-23T21:42:46.524Z,36.72
2023-03-23T21:46:47.875Z,36.99
2023-03-23T21:50:49.603Z,36.84
2023-03-23T21:54:50.995Z,37.06
2023-03-23T21:58:56.677Z,37.91
2023-03-23T22:02:58.055Z,36.90
2023-03-23T22:06:59.495Z,37.55
2023-03-23T22:11:02.816Z,36.86
2023-03-23T22:15:07.487Z,37.28
2023-03-23T22:19:11.840Z,38.82
2023-03-23T22:23:21.140Z,38.20
2023-03-23T22:27:22.590Z,37.98
2023-03-23T22:31:27.608Z,38.75
2023-03-23T22:35:29.421Z,39.05
2023-03-23T22:39:31.533Z,39.19
2023-03-23T22:43:37.364Z,39.30
2023-03-23T22:47:38.839Z,39.37
2023-03-23T22:51:40.998Z,39.52
2023-03-23T22:55:47.470Z,39.20
2023-03-23T22:59:50.462Z,38.80
2023-03-23T23:03:51.932Z,40.14
2023-03-23T23:07:53.479Z,39.73
2023-03-23T23:11:54.829Z,38.92
2023-03-23T23:15:58.319Z,40.12
2023-03-23T23:20:00.933Z,38.76
2023-03-23T23:24:02.477Z,39.47
2023-03-23T23:28:05.339Z,39.71
2023-03-23T23:32:06.738Z,39.85
2023-03-23T23:36:08.932Z,39.55
2023-03-23T23:40:10.949Z,39.70
2023-03-23T23:44:12.437Z,39.50
2023-03-23T23:48:15.953Z,39.56
2023-03-23T23:52:17.722Z,39.66
2023-03-23T23:56:21.113Z,39.40
